McConnellstown, Pennsylvania
Current Conditions -  °F | °C
As of 4:53 AM on Sunday 26 Oct 2014 (Local Time) from KAOO Reporting Station
Clear Clear  
Wind Chill: 50°   Ceiling: Unl
Heat Index: 50°   Visibility: 10mi
Dew Point: 33°   Wind: 9mph
Humidity: 52%   Direction: 310°NW
Pressure: 29.75"   Gusts: NA
Location:  40.45°N, 78.08°W
Report Text: KAOO 260853Z AUTO 31008KT 10SM CLR 10/01 A2975 RMK AO2 SLP072 T01000006 51008
Loading
Personal Weather Stations






























Interactive Weather Map
Tropical Storm Tracking
New forecast layout! Learn more

10-Day Weather Forecast

Advertisements
Track Severe Weather on mobile